Time;durP1;ratioP1;P1;durP2;ratioP2;P2;SDS_P1;SDS_P2;PMS_P1;PMS_P2;Temp;Humidity;BMP_temperature;BMP_pressure;BME280_temperature;BME280_humidity;BME280_pressure;Samples;Min_cycle;Max_cycle;Signal;HPM_P1;HPM_P2
2022/12/24 00:01:40;;;;;;;16.30;3.80;;;;;;;11.87;70.59;100347.41;5024788;28;20780;-68
2022/12/24 00:04:06;;;;;;;25.15;3.42;;;;;;;11.80;71.06;100361.34;5026856;28;20110;-68
2022/12/24 00:06:31;;;;;;;20.02;3.40;;;;;;;11.71;70.52;100366.72;5024213;28;20129;-68
2022/12/24 00:08:57;;;;;;;18.00;4.43;;;;;;;11.69;70.74;100363.31;5020762;28;20063;-68
2022/12/24 00:11:22;;;;;;;17.00;3.33;;;;;;;11.64;71.51;100358.19;5024747;28;20120;-68
2022/12/24 00:13:48;;;;;;;17.00;3.25;;;;;;;11.59;71.63;100370.38;5026683;28;20407;-68
2022/12/24 00:16:13;;;;;;;16.63;3.92;;;;;;;11.51;71.83;100368.81;5019693;28;20048;-67
2022/12/24 00:18:39;;;;;;;14.82;3.13;;;;;;;11.41;72.33;100367.25;5023014;28;20128;-68
2022/12/24 00:21:05;;;;;;;20.30;4.72;;;;;;;11.29;72.80;100369.19;5022470;28;20427;-67
2022/12/24 00:23:31;;;;;;;23.10;2.90;;;;;;;11.25;72.80;100385.63;5025517;28;20104;-68
2022/12/24 00:25:56;;;;;;;18.67;2.88;;;;;;;11.26;72.95;100371.81;5025162;28;20037;-67
2022/12/24 00:28:22;;;;;;;17.70;4.20;;;;;;;11.14;74.30;100389.28;5022081;28;20038;-68
2022/12/24 00:30:47;;;;;;;16.75;4.15;;;;;;;11.02;74.35;100392.91;5017292;28;20109;-67
2022/12/24 00:33:13;;;;;;;24.40;5.05;;;;;;;11.06;74.03;100386.81;5027848;28;20030;-68
2022/12/24 00:35:39;;;;;;;17.73;3.92;;;;;;;11.07;74.90;100396.28;5020909;28;20052;-68
2022/12/24 00:38:05;;;;;;;17.15;4.32;;;;;;;11.11;74.15;100395.34;5022236;28;20041;-68
2022/12/24 00:40:31;;;;;;;19.95;4.07;;;;;;;11.13;74.75;100385.81;5022577;28;20411;-68
2022/12/24 00:42:57;;;;;;;18.63;3.60;;;;;;;11.15;74.51;100391.84;5025372;28;20045;-67
2022/12/24 00:45:23;;;;;;;18.30;3.25;;;;;;;11.18;74.58;100385.75;5026125;28;20045;-68
2022/12/24 00:47:49;;;;;;;18.63;3.50;;;;;;;11.18;74.88;100389.22;5023864;28;20048;-68
2022/12/24 00:50:14;;;;;;;14.07;2.90;;;;;;;11.18;74.49;100389.22;5022526;28;20038;-67
2022/12/24 00:52:40;;;;;;;15.82;3.75;;;;;;;11.18;75.25;100390.94;5023768;28;20037;-68
2022/12/24 00:55:06;;;;;;;18.65;3.22;;;;;;;11.15;75.44;100394.44;5024829;28;20043;-67
2022/12/24 00:57:32;;;;;;;15.57;3.92;;;;;;;11.13;75.42;100395.31;5020011;28;20041;-68
2022/12/24 00:59:57;;;;;;;16.88;3.42;;;;;;;11.11;75.59;100403.13;5029704;28;20426;-68
2022/12/24 01:02:22;;;;;;;19.75;3.28;;;;;;;11.12;75.86;100394.47;5024918;28;20042;-67
2022/12/24 01:07:32;;;;;;;18.40;3.28;;;;;;;11.08;76.59;100408.34;5016057;28;20097;-68
2022/12/24 01:09:57;;;;;;;11.98;2.88;;;;;;;11.09;76.38;100419.53;5024440;28;20558;-67
2022/12/24 01:12:23;;;;;;;15.95;3.05;;;;;;;11.10;76.27;100416.09;5022887;28;20040;-67
2022/12/24 01:14:48;;;;;;;15.65;3.35;;;;;;;11.11;76.06;100418.63;5024718;28;20045;-68
2022/12/24 01:17:14;;;;;;;18.52;3.00;;;;;;;11.11;76.59;100418.63;5023871;28;20057;-68
2022/12/24 01:19:39;;;;;;;14.02;3.15;;;;;;;11.12;76.28;100432.44;5022781;28;20107;-68
2022/12/24 01:22:05;;;;;;;17.70;3.58;;;;;;;11.12;77.01;100435.88;5023084;28;20053;-65
2022/12/24 01:24:30;;;;;;;19.77;3.70;;;;;;;11.16;76.84;100437.50;5024424;28;20065;-67
2022/12/24 01:26:55;;;;;;;15.77;3.58;;;;;;;11.20;76.84;100443.50;5026218;28;20021;-66
2022/12/24 01:29:21;;;;;;;16.10;3.38;;;;;;;11.26;76.36;100435.63;5022504;28;20478;-68
2022/12/24 01:31:46;;;;;;;19.92;3.50;;;;;;;11.30;76.80;100439.91;5020655;28;20476;-68
2022/12/24 01:34:12;;;;;;;18.15;3.30;;;;;;;11.31;76.51;100439.00;5025299;28;20144;-67
2022/12/24 01:36:37;;;;;;;16.00;3.25;;;;;;;11.30;76.45;100440.75;5025177;28;20044;-68
2022/12/24 01:39:03;;;;;;;21.65;4.25;;;;;;;11.31;76.36;100439.84;5024480;28;20109;-68
2022/12/24 01:44:30;;;;;;;17.92;3.50;;;;;;;11.41;76.27;100442.28;5025146;28;20425;-68
2022/12/24 01:47:16;;;;;;;17.63;3.58;;;;;;;11.37;76.46;100449.25;5023658;28;20046;-68
2022/12/24 01:49:48;;;;;;;18.98;3.53;;;;;;;11.45;76.31;100454.34;5024167;28;20065;-68
2022/12/24 01:52:32;;;;;;;12.00;2.83;;;;;;;11.43;76.52;100451.75;5023183;28;20045;-68
2022/12/24 01:55:11;;;;;;;18.27;3.92;;;;;;;11.40;76.57;100454.38;5022409;28;20565;-68
2022/12/24 01:57:40;;;;;;;14.98;3.38;;;;;;;11.34;76.36;100451.88;5022364;28;20044;-68
2022/12/24 02:00:09;;;;;;;12.93;3.00;;;;;;;11.27;77.33;100464.09;5027808;28;20040;-68
2022/12/24 02:02:39;;;;;;;18.50;2.83;;;;;;;11.18;77.24;100472.00;5019227;28;20056;-68
2022/12/24 02:05:09;;;;;;;22.52;4.82;;;;;;;11.22;76.95;100463.28;5017265;28;20516;-68
2022/12/24 02:07:35;;;;;;;12.27;3.03;;;;;;;11.25;76.85;100470.13;5023356;28;20124;-68
2022/12/24 02:10:02;;;;;;;16.88;3.38;;;;;;;11.21;77.00;100469.34;5021183;28;20061;-68
2022/12/24 02:12:31;;;;;;;15.93;2.90;;;;;;;11.23;77.36;100482.25;5023880;28;20541;-68
2022/12/24 02:14:57;;;;;;;13.30;2.72;;;;;;;11.19;77.32;100485.75;5026149;28;20063;-68
2022/12/24 02:17:34;;;;;;;13.18;2.78;;;;;;;11.14;77.42;100492.75;5023444;28;20029;-68
2022/12/24 02:20:21;;;;;;;13.73;3.13;;;;;;;11.13;77.32;100491.00;5026659;28;20033;-68
2022/12/24 02:23:02;;;;;;;15.88;3.00;;;;;;;11.04;78.12;100498.94;5027506;28;20041;-66
2022/12/24 02:25:30;;;;;;;14.27;2.75;;;;;;;10.95;78.68;100499.06;5027237;28;20037;-68
2022/12/24 02:28:07;;;;;;;15.35;3.28;;;;;;;10.96;78.02;100491.28;5028444;28;20219;-68
2022/12/24 02:30:44;;;;;;;13.35;3.30;;;;;;;11.00;78.04;100490.38;5026972;28;20053;-67
2022/12/24 02:33:25;;;;;;;19.88;3.03;;;;;;;11.00;77.69;100497.25;5026483;28;20160;-68
2022/12/24 02:36:09;;;;;;;11.25;3.92;;;;;;;10.90;78.66;100508.59;5023356;28;20053;-68
2022/12/24 02:39:13;;;;;;;16.02;2.95;;;;;;;10.79;78.80;100514.78;5026492;28;20033;-68
2022/12/24 02:44:30;;;;;;;15.68;3.08;;;;;;;10.86;78.44;100527.66;5027739;28;20553;-68
2022/12/24 02:46:57;;;;;;;17.08;3.10;;;;;;;10.93;78.53;100534.41;5025264;28;20140;-68
2022/12/24 02:49:23;;;;;;;12.73;3.20;;;;;;;10.96;77.98;100532.66;5026889;28;20495;-68
2022/12/24 02:51:48;;;;;;;14.30;2.80;;;;;;;11.02;78.02;100523.94;5027044;28;20564;-68
2022/12/24 02:54:14;;;;;;;20.83;3.75;;;;;;;10.99;78.69;100531.75;5028203;28;20025;-68
2022/12/24 02:56:45;;;;;;;16.15;3.63;;;;;;;11.01;78.46;100533.44;5027292;28;20033;-68
2022/12/24 02:59:23;;;;;;;19.17;2.95;;;;;;;11.04;77.63;100546.31;5027602;28;20037;-68
2022/12/24 03:02:18;;;;;;;15.98;3.00;;;;;;;11.04;78.32;100548.91;5026199;28;20045;-68
2022/12/24 03:04:43;;;;;;;15.23;3.20;;;;;;;11.03;78.54;100543.78;5031095;28;20052;-67
2022/12/24 03:07:30;;;;;;;16.30;2.72;;;;;;;11.00;78.58;100542.09;5032430;28;20037;-67
2022/12/24 03:10:13;;;;;;;11.05;2.63;;;;;;;10.97;79.09;100542.13;5023686;28;20049;-67
2022/12/24 03:12:43;;;;;;;22.45;4.78;;;;;;;10.93;78.65;100543.03;5028699;28;20068;-68
2022/12/24 03:15:12;;;;;;;11.10;2.33;;;;;;;10.89;79.37;100538.78;5028537;28;20030;-68
2022/12/24 03:17:40;;;;;;;11.57;2.67;;;;;;;10.84;79.73;100540.56;5029661;28;20075;-68
2022/12/24 03:20:10;;;;;;;16.45;2.47;;;;;;;10.80;80.54;100546.69;5020590;28;20037;-67
2022/12/24 03:22:36;;;;;;;21.42;3.30;;;;;;;10.77;81.20;100544.13;5027201;28;20065;-67
2022/12/24 03:25:02;;;;;;;14.02;3.15;;;;;;;10.69;82.92;100541.63;5022212;28;20120;-66
2022/12/24 03:27:29;;;;;;;10.45;2.55;;;;;;;10.62;84.40;100552.91;5025274;28;20048;-66
2022/12/24 03:29:56;;;;;;;19.38;3.25;;;;;;;10.52;85.36;100558.22;5020866;28;20518;-66
2022/12/24 03:32:27;;;;;;;11.43;2.70;;;;;;;10.44;87.07;100560.91;5025650;28;20041;-66
2022/12/24 03:34:54;;;;;;;12.55;2.05;;;;;;;10.42;87.99;100565.19;5024651;28;20029;-66
2022/12/24 03:37:19;;;;;;;8.00;2.15;;;;;;;10.37;88.09;100569.56;5023853;28;20554;-67
2022/12/24 03:39:45;;;;;;;9.75;2.00;;;;;;;10.35;88.91;100571.31;5025329;28;20056;-66
2022/12/24 03:42:10;;;;;;;9.70;2.45;;;;;;;10.28;89.90;100572.25;5020027;28;20033;-66
2022/12/24 03:44:36;;;;;;;11.10;2.10;;;;;;;10.24;90.78;100573.13;5028481;28;20046;-67
2022/12/24 03:47:01;;;;;;;7.85;1.95;;;;;;;10.20;90.64;100572.34;5024116;28;20530;-68
2022/12/24 03:49:26;;;;;;;7.60;1.85;;;;;;;10.17;91.30;100577.53;5024508;28;20037;-67
2022/12/24 03:51:52;;;;;;;15.05;2.75;;;;;;;10.15;92.06;100579.25;5024820;28;20737;-67
2022/12/24 03:54:17;;;;;;;12.00;2.22;;;;;;;10.14;93.42;100587.91;5026639;28;20817;-67
2022/12/24 03:56:42;;;;;;;16.63;3.63;;;;;;;10.16;93.08;100580.97;5027082;28;20115;-67
2022/12/24 03:59:08;;;;;;;14.05;3.70;;;;;;;10.21;93.58;100578.34;5023897;28;20037;-66
2022/12/24 04:01:33;;;;;;;12.35;2.47;;;;;;;10.26;92.94;100581.75;5023228;28;20033;-66
2022/12/24 04:03:59;;;;;;;15.15;2.85;;;;;;;10.25;93.26;100585.19;5016738;28;20065;-67
2022/12/24 04:06:24;;;;;;;8.68;2.15;;;;;;;10.21;93.55;100599.00;5033040;28;20093;-65
2022/12/24 04:08:50;;;;;;;10.85;2.03;;;;;;;10.15;93.69;100594.75;5025718;28;20073;-65
2022/12/24 04:11:17;;;;;;;5.38;2.17;;;;;;;10.09;94.70;100587.06;5023588;28;20037;-65
2022/12/24 04:13:42;;;;;;;11.13;2.00;;;;;;;10.01;95.04;100591.44;5026864;28;20111;-64
2022/12/24 04:16:10;;;;;;;12.38;2.08;;;;;;;9.96;96.39;100598.38;5026896;28;20494;-65
2022/12/24 04:18:37;;;;;;;12.52;2.33;;;;;;;9.91;96.25;100599.31;5031819;28;20029;-65
2022/12/24 04:21:02;;;;;;;8.55;1.60;;;;;;;9.87;94.92;100593.31;5030238;28;20032;-64
2022/12/24 04:23:32;;;;;;;8.38;1.50;;;;;;;9.82;95.46;100595.06;5027534;28;20037;-65
2022/12/24 04:25:59;;;;;;;8.40;1.67;;;;;;;9.76;95.65;100595.13;5023131;28;20049;-65
2022/12/24 04:28:24;;;;;;;6.10;1.33;;;;;;;9.73;96.53;100604.59;5019032;28;20037;-65
2022/12/24 04:30:50;;;;;;;5.90;1.65;;;;;;;9.68;96.94;100604.63;5028136;28;20041;-65
2022/12/24 04:33:15;;;;;;;6.72;1.13;;;;;;;9.63;96.86;100599.50;5025202;28;20025;-65
2022/12/24 04:35:41;;;;;;;5.70;1.10;;;;;;;9.57;96.89;100602.13;5024805;28;20033;-64
2022/12/24 04:38:09;;;;;;;5.22;1.08;;;;;;;9.53;97.31;100613.28;5026549;28;20052;-64
2022/12/24 04:40:35;;;;;;;5.40;1.17;;;;;;;9.50;97.08;100626.22;5021336;28;20029;-65
2022/12/24 04:43:00;;;;;;;5.15;1.00;;;;;;;9.48;97.03;100627.97;5024712;28;20531;-64
2022/12/24 04:45:26;;;;;;;6.03;0.80;;;;;;;9.44;97.29;100625.38;5026361;28;20052;-65
2022/12/24 04:47:51;;;;;;;7.13;1.30;;;;;;;9.42;96.73;100629.72;5027420;28;20044;-64
2022/12/24 04:50:17;;;;;;;8.68;1.20;;;;;;;9.39;96.78;100629.72;5024805;28;20042;-65
2022/12/24 04:52:42;;;;;;;5.63;1.10;;;;;;;9.37;98.22;100623.72;5024475;28;20041;-65
2022/12/24 04:55:08;;;;;;;4.82;1.35;;;;;;;9.34;97.45;100624.63;5019097;28;20033;-65
2022/12/24 04:57:34;;;;;;;3.95;0.93;;;;;;;9.32;97.61;100623.75;5022427;28;20046;-65
2022/12/24 05:00:00;;;;;;;3.88;0.80;;;;;;;9.28;98.22;100628.94;5027986;28;20036;-65
2022/12/24 05:02:26;;;;;;;9.57;1.35;;;;;;;9.24;97.58;100615.19;5022913;28;20037;-65
2022/12/24 05:04:51;;;;;;;2.65;0.80;;;;;;;9.19;98.38;100619.53;5021042;28;20132;-68
2022/12/24 05:07:17;;;;;;;2.88;1.00;;;;;;;9.12;98.70;100613.53;5024756;28;20053;-69
2022/12/24 05:09:42;;;;;;;2.45;1.15;;;;;;;9.06;98.17;100610.13;5022869;28;20037;-69
2022/12/24 05:12:07;;;;;;;10.40;1.13;;;;;;;9.02;98.21;100614.44;5017242;28;20029;-69
2022/12/24 05:14:33;;;;;;;1.83;0.90;;;;;;;8.98;98.68;100607.59;5022360;28;20041;-69
2022/12/24 05:16:58;;;;;;;1.90;0.77;;;;;;;8.96;99.31;100613.63;5025756;28;20099;-69
2022/12/24 05:19:24;;;;;;;3.15;1.35;;;;;;;8.94;98.99;100625.66;5024937;28;20402;-69
2022/12/24 05:26:20;;;;;;;2.85;0.82;;;;;;;8.94;99.62;100641.97;5027059;28;20148;-69
2022/12/24 05:27:19;;;;;;;4.30;1.30;;;;;;;8.95;99.86;100637.69;5021294;28;20041;-69
2022/12/24 05:29:44;;;;;;;6.15;1.48;;;;;;;8.95;100.00;100633.41;5023463;28;20465;-69
2022/12/24 05:32:10;;;;;;;5.50;1.40;;;;;;;8.98;100.00;100642.84;5023672;28;20037;-69
2022/12/24 05:34:35;;;;;;;5.63;1.30;;;;;;;9.01;99.75;100637.66;5019717;28;20033;-69
2022/12/24 05:37:00;;;;;;;10.80;1.73;;;;;;;9.04;100.00;100647.97;5024723;28;20049;-69
2022/12/24 05:39:26;;;;;;;2.60;1.17;;;;;;;9.05;100.00;100642.78;5025357;28;20374;-69
2022/12/24 05:41:51;;;;;;;6.43;1.83;;;;;;;9.06;100.00;100647.09;5020817;28;20030;-68
2022/12/24 05:44:17;;;;;;;10.82;1.90;;;;;;;9.08;100.00;100650.50;5021670;28;20034;-69
2022/12/24 05:46:43;;;;;;;4.05;1.48;;;;;;;9.08;99.94;100650.50;5027281;28;20044;-69
2022/12/24 05:49:08;;;;;;;4.30;1.50;;;;;;;9.06;100.00;100651.38;5026350;28;20039;-69
2022/12/24 05:51:34;;;;;;;4.78;1.73;;;;;;;8.98;100.00;100648.00;5025854;28;20033;-69
2022/12/24 05:53:59;;;;;;;4.93;1.60;;;;;;;8.89;99.82;100653.19;5028369;28;20040;-69
2022/12/24 05:56:25;;;;;;;4.15;1.77;;;;;;;8.83;99.63;100655.78;5030293;28;20037;-69
2022/12/24 05:58:52;;;;;;;11.43;1.92;;;;;;;8.80;100.00;100666.09;5023481;28;20085;-69
2022/12/24 06:01:18;;;;;;;11.50;2.22;;;;;;;8.80;100.00;100664.38;5036430;28;20033;-69
2022/12/24 06:03:44;;;;;;;10.25;2.40;;;;;;;8.82;100.00;100672.09;5032345;28;20516;-69
2022/12/24 06:06:18;;;;;;;7.00;2.08;;;;;;;8.84;100.00;100667.81;5027800;28;20033;-69
2022/12/24 06:08:43;;;;;;;5.18;2.42;;;;;;;8.81;100.00;100660.09;5018713;28;20042;-69
2022/12/24 06:11:11;;;;;;;10.95;2.97;;;;;;;8.77;100.00;100661.81;5020689;28;20372;-69
2022/12/24 06:13:38;;;;;;;11.63;2.85;;;;;;;8.72;100.00;100663.53;5025875;28;20064;-69
2022/12/24 06:16:05;;;;;;;12.65;3.40;;;;;;;8.67;100.00;100670.41;5030179;28;20029;-69
2022/12/24 06:18:33;;;;;;;7.47;2.42;;;;;;;8.64;100.00;100666.97;5020569;28;20111;-69
2022/12/24 06:20:59;;;;;;;8.00;2.40;;;;;;;8.58;100.00;100670.41;5022387;28;20421;-69
2022/12/24 06:23:27;;;;;;;7.50;2.78;;;;;;;8.53;100.00;100683.31;5028638;28;20087;-69
2022/12/24 06:25:55;;;;;;;10.77;2.30;;;;;;;8.45;100.00;100679.91;5030007;28;20752;-69
2022/12/24 06:28:20;;;;;;;10.52;2.30;;;;;;;8.49;100.00;100681.59;5029030;28;20175;-69
2022/12/24 06:30:48;;;;;;;7.40;2.17;;;;;;;8.42;100.00;100682.50;5028885;28;20128;-69
2022/12/24 06:33:13;;;;;;;11.25;1.85;;;;;;;8.43;100.00;100688.47;5033485;28;20032;-69
2022/12/24 06:35:39;;;;;;;8.93;1.83;;;;;;;8.52;100.00;100679.03;5026632;28;20080;-69
2022/12/24 06:38:04;;;;;;;5.40;1.73;;;;;;;8.61;100.00;100691.03;5030044;28;20405;-68
2022/12/24 06:40:30;;;;;;;8.02;1.83;;;;;;;8.69;100.00;100694.47;5030885;28;20037;-68
2022/12/24 06:42:55;;;;;;;9.15;1.80;;;;;;;8.74;100.00;100690.16;5030341;28;20034;-69
2022/12/24 06:45:20;;;;;;;14.85;2.65;;;;;;;8.79;100.00;100700.44;5026974;28;20044;-68
2022/12/24 06:47:46;;;;;;;8.65;1.55;;;;;;;8.82;100.00;100706.44;5020490;28;20065;-69
2022/12/24 06:50:11;;;;;;;7.43;1.92;;;;;;;8.87;100.00;100707.28;5022051;28;20419;-70
2022/12/24 06:52:37;;;;;;;8.20;2.00;;;;;;;8.89;100.00;100708.16;5020533;28;20052;-69
2022/12/24 06:55:03;;;;;;;8.57;1.90;;;;;;;8.91;100.00;100723.59;5021303;28;20502;-69
2022/12/24 06:57:30;;;;;;;9.48;1.92;;;;;;;8.92;100.00;100723.63;5025387;28;20533;-69
2022/12/24 06:59:56;;;;;;;7.85;1.92;;;;;;;8.94;100.00;100732.19;5032497;28;20041;-69
2022/12/24 07:02:22;;;;;;;6.18;1.80;;;;;;;8.94;100.00;100737.34;5025804;28;20034;-69
2022/12/24 08:49:56;;;;;;;21.20;4.18;;;;;;;10.38;92.77;100826.22;5036131;28;20037;-70
2022/12/24 08:52:21;;;;;;;18.90;3.65;;;;;;;10.49;91.79;100834.75;5056244;28;20409;-70
2022/12/24 08:54:47;;;;;;;18.08;4.60;;;;;;;10.59;91.29;100834.69;5063386;28;20543;-70
2022/12/24 08:57:13;;;;;;;22.48;4.75;;;;;;;10.68;90.88;100829.44;5067386;28;20155;-70
2022/12/24 08:59:39;;;;;;;23.27;4.32;;;;;;;10.79;90.67;100834.53;5071304;28;20044;-70
2022/12/24 09:02:04;;;;;;;14.60;3.60;;;;;;;10.85;89.62;100839.66;5067309;28;20028;-70
2022/12/24 09:04:30;;;;;;;17.13;3.38;;;;;;;10.87;89.22;100845.66;5067870;28;20055;-71
2022/12/24 09:06:55;;;;;;;22.08;5.38;;;;;;;10.84;88.07;100837.06;5062246;28;20032;-68
2022/12/24 09:09:21;;;;;;;18.55;4.10;;;;;;;10.82;87.92;100842.25;5055207;28;20024;-75
2022/12/24 09:11:46;;;;;;;17.73;4.28;;;;;;;10.83;87.55;100840.53;5072333;28;20035;-74
2022/12/24 09:14:12;;;;;;;24.40;3.45;;;;;;;10.85;87.75;100851.72;5070076;28;20037;-74
2022/12/24 09:16:38;;;;;;;18.40;3.75;;;;;;;10.86;88.26;100854.28;5070540;28;20032;-74
2022/12/24 09:19:03;;;;;;;11.05;3.20;;;;;;;10.88;87.73;100857.72;5072506;28;20071;-74
2022/12/24 09:21:29;;;;;;;21.15;4.72;;;;;;;10.93;87.32;100861.13;5064946;28;20711;-73
2022/12/24 09:23:54;;;;;;;14.25;3.38;;;;;;;10.98;86.74;100864.50;5049140;28;20027;-74
2022/12/24 09:26:25;;;;;;;18.15;4.32;;;;;;;11.02;87.14;100871.38;5049907;28;20498;-74
2022/12/24 09:28:51;;;;;;;16.85;3.63;;;;;;;11.03;86.12;100872.25;5056759;28;20037;-74
2022/12/24 09:31:18;;;;;;;21.58;4.15;;;;;;;11.06;85.37;100880.00;5055133;28;20035;-74
2022/12/24 09:33:45;;;;;;;20.60;4.05;;;;;;;11.08;85.95;100880.81;5072031;28;20671;-74
2022/12/24 09:36:11;;;;;;;21.15;3.42;;;;;;;11.10;86.46;100886.88;5069623;28;20036;-74
2022/12/24 09:38:39;;;;;;;25.75;5.25;;;;;;;11.12;85.97;100893.72;5059519;28;20052;-74
2022/12/24 09:41:15;;;;;;;20.38;4.32;;;;;;;11.15;86.69;100898.88;5064193;28;20035;-74
2022/12/24 09:43:48;;;;;;;27.13;4.07;;;;;;;11.19;86.15;100900.56;5066919;28;20039;-74
2022/12/24 09:46:29;;;;;;;20.45;4.10;;;;;;;11.26;85.34;100907.41;5064676;28;20044;-75
2022/12/24 09:49:01;;;;;;;23.13;4.82;;;;;;;11.33;85.54;100901.31;5060708;28;20119;-74
2022/12/24 09:51:40;;;;;;;26.90;4.95;;;;;;;11.42;84.42;100897.78;5041798;28;20029;-73
2022/12/24 09:54:12;;;;;;;20.27;3.70;;;;;;;11.54;82.54;100896.81;5058741;28;20074;-73
2022/12/24 09:56:42;;;;;;;27.23;4.13;;;;;;;11.63;82.30;100883.78;5069563;28;20040;-74
2022/12/24 09:59:14;;;;;;;22.80;4.45;;;;;;;11.71;81.78;100898.34;5073607;28;20116;-74
2022/12/24 10:01:40;;;;;;;21.02;4.10;;;;;;;11.76;82.00;100909.50;5075499;28;20025;-74
2022/12/24 10:04:14;;;;;;;14.57;3.67;;;;;;;11.84;82.53;100906.84;5074318;28;20063;-74
2022/12/24 10:06:53;;;;;;;18.05;3.83;;;;;;;11.88;80.27;100914.56;5068953;28;20512;-73
2022/12/24 10:09:36;;;;;;;17.80;3.90;;;;;;;11.89;81.17;100925.78;5073992;28;20078;-73
2022/12/24 10:12:24;;;;;;;18.08;3.92;;;;;;;11.85;81.14;100924.97;5055003;28;20044;-73
2022/12/24 10:14:58;;;;;;;19.40;4.22;;;;;;;11.80;81.52;100925.88;5061890;28;20069;-73
2022/12/24 10:17:26;;;;;;;21.63;3.67;;;;;;;11.74;80.92;100920.78;5077731;28;20036;-73
2022/12/24 10:19:52;;;;;;;20.80;4.35;;;;;;;11.73;80.89;100919.91;5066659;28;20063;-73
2022/12/24 10:22:49;;;;;;;25.48;5.07;;;;;;;11.73;81.01;100922.50;5045273;28;20033;-74
2022/12/24 10:25:59;;;;;;;24.10;4.88;;;;;;;11.82;79.94;100921.53;5050319;28;20037;-73
2022/12/24 10:28:33;;;;;;;24.92;4.43;;;;;;;11.88;79.34;100919.75;5033280;28;20028;-74
2022/12/24 10:31:02;;;;;;;22.70;4.30;;;;;;;11.91;79.42;100913.66;5060956;28;20404;-74
2022/12/24 10:33:41;;;;;;;22.90;3.95;;;;;;;11.95;79.02;100920.53;5072792;28;20063;-73
2022/12/24 10:36:14;;;;;;;27.20;6.20;;;;;;;11.93;80.13;100927.44;5060621;28;20070;-66
2022/12/24 10:38:39;;;;;;;16.83;4.25;;;;;;;11.94;79.71;100921.41;5072409;28;20024;-65
2022/12/24 10:41:07;;;;;;;21.63;4.63;;;;;;;11.96;80.46;100931.75;5075634;28;20059;-66
2022/12/24 10:43:34;;;;;;;23.02;4.22;;;;;;;11.97;80.07;100931.72;5078316;28;20697;-66
2022/12/24 10:46:07;;;;;;;21.63;3.95;;;;;;;11.99;79.89;100935.16;5071449;28;20493;-65
2022/12/24 10:48:39;;;;;;;25.77;4.18;;;;;;;11.99;79.35;100937.75;5076262;28;20028;-66
2022/12/24 10:51:13;;;;;;;28.20;4.45;;;;;;;12.01;80.31;100937.75;5071181;28;20036;-66
2022/12/24 10:53:53;;;;;;;29.70;4.72;;;;;;;12.01;79.95;100942.91;5073932;28;20474;-66
2022/12/24 10:56:20;;;;;;;25.23;4.22;;;;;;;12.03;79.60;100933.38;5049464;28;20049;-67
2022/12/24 10:58:51;;;;;;;18.45;3.47;;;;;;;12.03;79.93;100929.06;5057877;28;20029;-66
2022/12/24 11:01:16;;;;;;;16.95;4.13;;;;;;;12.08;80.14;100939.41;5059189;28;20039;-67
2022/12/24 11:03:42;;;;;;;21.35;4.50;;;;;;;12.10;80.00;100933.31;5052230;28;20037;-67
2022/12/24 11:06:19;;;;;;;15.95;3.75;;;;;;;12.11;79.91;100932.41;5070337;28;20528;-66
2022/12/24 11:08:46;;;;;;;25.60;5.10;;;;;;;12.08;79.82;100922.09;5073642;28;20029;-66
2022/12/24 11:11:12;;;;;;;23.10;4.35;;;;;;;12.04;79.80;100925.63;5069128;28;20029;-66
2022/12/24 11:13:50;;;;;;;22.60;4.55;;;;;;;12.05;79.75;100924.72;5069301;28;20032;-67
2022/12/24 11:16:35;;;;;;;26.13;4.60;;;;;;;12.09;79.04;100931.59;5068332;28;20175;-67
2022/12/24 11:19:04;;;;;;;16.45;4.05;;;;;;;12.17;79.73;100934.94;5052643;28;20052;-69
2022/12/24 11:21:36;;;;;;;22.48;4.03;;;;;;;12.31;79.67;100927.88;5070451;28;20028;-69
2022/12/24 11:24:25;;;;;;;22.20;3.72;;;;;;;12.41;78.78;100920.81;5067689;28;20126;-69
2022/12/24 11:26:50;;;;;;;19.38;4.30;;;;;;;12.43;78.69;100927.69;5071565;28;20086;-69
2022/12/24 11:29:20;;;;;;;25.52;4.82;;;;;;;12.38;78.55;100913.06;5076987;28;20483;-69
2022/12/24 11:31:46;;;;;;;18.55;4.32;;;;;;;12.30;79.04;100913.19;5072300;28;20044;-69
2022/12/24 11:34:27;;;;;;;17.95;3.72;;;;;;;12.17;78.95;100914.19;5054410;28;20504;-69
2022/12/24 11:36:55;;;;;;;27.42;5.32;;;;;;;12.09;79.57;100915.19;5078112;28;20036;-69
2022/12/24 11:39:24;;;;;;;20.50;3.92;;;;;;;11.97;79.20;100921.38;5075313;28;20020;-69
2022/12/24 11:41:51;;;;;;;22.90;4.63;;;;;;;11.86;80.28;100924.09;5068208;28;20677;-69
2022/12/24 11:44:26;;;;;;;20.33;4.60;;;;;;;11.76;80.48;100916.41;5071421;28;20087;-69
2022/12/24 11:46:55;;;;;;;25.58;4.70;;;;;;;11.73;80.68;100922.50;5055462;28;20070;-69
2022/12/24 11:49:24;;;;;;;19.65;3.70;;;;;;;11.77;81.36;100919.00;5076542;28;20055;-69
2022/12/24 11:52:11;;;;;;;29.55;4.18;;;;;;;11.94;80.13;100926.56;5064089;28;20094;-69
2022/12/24 11:55:21;;;;;;;21.05;4.53;;;;;;;12.09;80.19;100925.53;5067560;28;20451;-69
2022/12/24 11:57:55;;;;;;;18.35;3.70;;;;;;;12.20;79.59;100926.25;5050593;28;20064;-69
2022/12/24 12:00:20;;;;;;;22.05;4.85;;;;;;;12.23;78.86;100921.91;5079122;28;20020;-67
2022/12/24 12:02:49;;;;;;;19.13;3.63;;;;;;;12.29;78.76;100928.75;5083585;28;20035;-69
2022/12/24 12:05:20;;;;;;;24.08;4.38;;;;;;;12.31;79.07;100924.41;5074769;28;20032;-69
2022/12/24 12:07:47;;;;;;;15.30;3.67;;;;;;;12.31;79.12;100925.28;5070216;28;20028;-69
2022/12/24 12:10:18;;;;;;;12.98;3.15;;;;;;;12.31;79.77;100927.00;5071767;28;20046;-69
2022/12/24 12:12:58;;;;;;;22.40;4.47;;;;;;;12.27;78.91;100928.78;5072540;28;20032;-69
2022/12/24 12:15:39;;;;;;;19.90;4.72;;;;;;;12.30;78.92;100933.06;5071462;28;20048;-69
2022/12/24 12:18:36;;;;;;;16.60;4.10;;;;;;;12.32;79.02;100931.28;5066273;28;20054;-69
2022/12/24 12:21:13;;;;;;;21.70;3.80;;;;;;;12.40;79.06;100935.53;5068863;28;20036;-68
2022/12/24 12:23:48;;;;;;;22.55;4.15;;;;;;;12.51;77.80;100934.50;5060034;28;20029;-69
2022/12/24 12:26:25;;;;;;;20.40;4.55;;;;;;;12.59;78.04;100946.50;5075379;28;20194;-69
2022/12/24 12:28:59;;;;;;;28.88;5.85;;;;;;;12.59;77.71;100943.03;5072568;28;20704;-69
2022/12/24 12:31:36;;;;;;;23.48;5.20;;;;;;;12.57;77.40;100945.66;5067352;28;20044;-69
2022/12/24 12:34:23;;;;;;;22.67;4.40;;;;;;;12.44;78.16;100938.91;5072892;28;20032;-69
2022/12/24 12:37:36;;;;;;;20.30;4.47;;;;;;;12.36;78.31;100938.16;5074403;28;20443;-69
2022/12/24 12:40:02;;;;;;;20.70;4.82;;;;;;;12.28;78.61;100933.09;5063342;28;20036;-69
2022/12/24 12:42:35;;;;;;;26.25;5.15;;;;;;;12.17;79.03;100947.03;5067260;28;20441;-69
2022/12/24 12:45:25;;;;;;;23.17;5.00;;;;;;;12.11;79.35;100942.78;5050948;28;20105;-69
2022/12/24 12:48:34;;;;;;;22.77;5.78;;;;;;;12.19;78.71;100947.88;5072563;28;20028;-69
2022/12/24 12:51:06;;;;;;;21.38;4.28;;;;;;;12.27;78.60;100946.91;5021332;28;20051;-69
2022/12/24 12:53:58;;;;;;;17.73;3.65;;;;;;;12.29;78.26;100945.16;5053164;28;20101;-69
2022/12/24 12:56:29;;;;;;;18.88;4.78;;;;;;;12.28;77.62;100935.69;5060379;28;20025;-68
2022/12/24 12:59:03;;;;;;;25.13;4.93;;;;;;;12.28;77.88;100938.28;5065666;28;20059;-69
2022/12/24 13:01:45;;;;;;;10.80;3.60;;;;;;;12.29;77.34;100934.78;5071358;28;20469;-69
2022/12/24 13:04:48;;;;;;;22.85;5.00;;;;;;;12.34;77.87;100940.78;5069731;28;20265;-69
2022/12/24 13:07:31;;;;;;;22.92;4.70;;;;;;;12.36;77.12;100935.56;5055668;28;20575;-69
2022/12/24 13:10:21;;;;;;;24.55;4.85;;;;;;;12.41;76.71;100939.81;5071896;28;20036;-69
2022/12/24 13:12:47;;;;;;;18.73;3.55;;;;;;;12.49;76.22;100936.28;5065765;28;20041;-69
2022/12/24 13:15:32;;;;;;;23.95;4.22;;;;;;;12.50;76.14;100944.00;5067641;28;20493;-69
2022/12/24 13:18:18;;;;;;;28.13;5.75;;;;;;;12.52;76.05;100947.47;5061323;28;20526;-69
2022/12/24 13:20:49;;;;;;;20.55;4.20;;;;;;;12.54;75.95;100953.47;5071669;28;20064;-69
2022/12/24 13:23:21;;;;;;;18.88;3.63;;;;;;;12.56;76.07;100943.06;5066773;28;20509;-69
2022/12/24 13:25:56;;;;;;;24.13;4.10;;;;;;;12.56;76.13;100950.84;5067721;28;20559;-68
2022/12/24 13:28:21;;;;;;;15.75;3.83;;;;;;;12.60;75.87;100952.53;5052961;28;20044;-68
2022/12/24 13:31:23;;;;;;;15.25;4.22;;;;;;;12.65;74.72;100948.13;5059109;28;20098;-69